sensor_id;sensor_type;location;lat;lon;timestamp;P1;durP1;ratioP1;P2;durP2;ratioP2
74064;SDS011;62421;51.412;5.432;2022-09-01T00:01:17;9.27;;;1.10;;
74064;SDS011;62421;51.412;5.432;2022-09-01T00:03:48;6.70;;;1.30;;
74064;SDS011;62421;51.412;5.432;2022-09-01T00:06:17;3.53;;;1.45;;
74064;SDS011;62421;51.412;5.432;2022-09-01T00:08:47;6.47;;;1.35;;
74064;SDS011;62421;51.412;5.432;2022-09-01T00:11:13;5.43;;;1.50;;
74064;SDS011;62421;51.412;5.432;2022-09-01T00:13:39;11.87;;;1.27;;
74064;SDS011;62421;51.412;5.432;2022-09-01T00:16:04;12.50;;;1.53;;
74064;SDS011;62421;51.412;5.432;2022-09-01T00:18:29;5.32;;;1.50;;
74064;SDS011;62421;51.412;5.432;2022-09-01T00:20:56;10.20;;;1.40;;
74064;SDS011;62421;51.412;5.432;2022-09-01T00:23:23;6.25;;;1.70;;
74064;SDS011;62421;51.412;5.432;2022-09-01T00:25:50;3.55;;;1.20;;
74064;SDS011;62421;51.412;5.432;2022-09-01T00:28:15;6.23;;;1.50;;
74064;SDS011;62421;51.412;5.432;2022-09-01T00:30:41;6.83;;;1.40;;
74064;SDS011;62421;51.412;5.432;2022-09-01T00:33:06;8.98;;;2.00;;
74064;SDS011;62421;51.412;5.432;2022-09-01T00:35:32;10.00;;;1.43;;
74064;SDS011;62421;51.412;5.432;2022-09-01T00:37:57;3.17;;;1.07;;
74064;SDS011;62421;51.412;5.432;2022-09-01T00:40:22;8.13;;;1.40;;
74064;SDS011;62421;51.412;5.432;2022-09-01T00:42:48;6.73;;;1.60;;
74064;SDS011;62421;51.412;5.432;2022-09-01T00:45:13;8.18;;;1.17;;
74064;SDS011;62421;51.412;5.432;2022-09-01T00:47:39;4.40;;;1.05;;
74064;SDS011;62421;51.412;5.432;2022-09-01T00:50:05;4.65;;;1.42;;
74064;SDS011;62421;51.412;5.432;2022-09-01T00:52:40;4.40;;;1.30;;
74064;SDS011;62421;51.412;5.432;2022-09-01T00:55:11;8.25;;;1.75;;
74064;SDS011;62421;51.412;5.432;2022-09-01T00:57:40;3.55;;;1.10;;
74064;SDS011;62421;51.412;5.432;2022-09-01T01:00:08;4.97;;;1.42;;
74064;SDS011;62421;51.412;5.432;2022-09-01T01:02:40;3.78;;;1.52;;
74064;SDS011;62421;51.412;5.432;2022-09-01T01:05:06;3.57;;;1.30;;
74064;SDS011;62421;51.412;5.432;2022-09-01T01:07:32;7.57;;;1.23;;
74064;SDS011;62421;51.412;5.432;2022-09-01T01:10:03;5.80;;;1.80;;
74064;SDS011;62421;51.412;5.432;2022-09-01T01:12:30;4.47;;;0.80;;
74064;SDS011;62421;51.412;5.432;2022-09-01T01:14:57;8.95;;;1.55;;
74064;SDS011;62421;51.412;5.432;2022-09-01T01:17:23;5.50;;;1.17;;
74064;SDS011;62421;51.412;5.432;2022-09-01T01:19:49;8.63;;;1.40;;
74064;SDS011;62421;51.412;5.432;2022-09-01T01:25:22;3.50;;;1.30;;
74064;SDS011;62421;51.412;5.432;2022-09-01T01:27:47;4.45;;;1.63;;
74064;SDS011;62421;51.412;5.432;2022-09-01T01:30:13;9.97;;;1.70;;
74064;SDS011;62421;51.412;5.432;2022-09-01T01:32:40;10.70;;;1.60;;
74064;SDS011;62421;51.412;5.432;2022-09-01T01:35:08;8.75;;;1.30;;
74064;SDS011;62421;51.412;5.432;2022-09-01T01:37:39;7.55;;;1.30;;
74064;SDS011;62421;51.412;5.432;2022-09-01T01:40:10;5.23;;;1.50;;
74064;SDS011;62421;51.412;5.432;2022-09-01T01:42:40;4.65;;;0.90;;
74064;SDS011;62421;51.412;5.432;2022-09-01T01:45:08;2.83;;;1.13;;
74064;SDS011;62421;51.412;5.432;2022-09-01T01:47:36;8.18;;;1.40;;
74064;SDS011;62421;51.412;5.432;2022-09-01T01:50:02;4.50;;;1.50;;
74064;SDS011;62421;51.412;5.432;2022-09-01T01:52:33;4.28;;;1.38;;
74064;SDS011;62421;51.412;5.432;2022-09-01T01:54:59;2.85;;;1.30;;
74064;SDS011;62421;51.412;5.432;2022-09-01T01:57:24;6.23;;;1.20;;
74064;SDS011;62421;51.412;5.432;2022-09-01T01:59:55;5.18;;;1.30;;
74064;SDS011;62421;51.412;5.432;2022-09-01T02:02:21;2.85;;;1.20;;
74064;SDS011;62421;51.412;5.432;2022-09-01T02:04:46;5.22;;;1.40;;
74064;SDS011;62421;51.412;5.432;2022-09-01T02:07:12;8.43;;;1.67;;
74064;SDS011;62421;51.412;5.432;2022-09-01T02:09:38;7.00;;;1.43;;
74064;SDS011;62421;51.412;5.432;2022-09-01T02:12:05;4.85;;;1.23;;
74064;SDS011;62421;51.412;5.432;2022-09-01T02:14:32;3.10;;;1.38;;
74064;SDS011;62421;51.412;5.432;2022-09-01T02:16:57;4.97;;;1.30;;
74064;SDS011;62421;51.412;5.432;2022-09-01T02:19:23;4.15;;;1.20;;
74064;SDS011;62421;51.412;5.432;2022-09-01T02:21:48;3.45;;;1.55;;
74064;SDS011;62421;51.412;5.432;2022-09-01T02:24:18;3.43;;;1.10;;
74064;SDS011;62421;51.412;5.432;2022-09-01T02:26:44;5.10;;;1.25;;
74064;SDS011;62421;51.412;5.432;2022-09-01T02:29:13;4.15;;;1.30;;
74064;SDS011;62421;51.412;5.432;2022-09-01T02:31:45;3.22;;;1.30;;
74064;SDS011;62421;51.412;5.432;2022-09-01T02:34:16;4.80;;;1.40;;
74064;SDS011;62421;51.412;5.432;2022-09-01T02:36:44;9.37;;;1.73;;
74064;SDS011;62421;51.412;5.432;2022-09-01T02:39:14;4.22;;;1.73;;
74064;SDS011;62421;51.412;5.432;2022-09-01T02:41:44;4.30;;;1.55;;
74064;SDS011;62421;51.412;5.432;2022-09-01T02:44:09;8.07;;;1.60;;
74064;SDS011;62421;51.412;5.432;2022-09-01T02:46:42;4.47;;;1.40;;
74064;SDS011;62421;51.412;5.432;2022-09-01T02:49:11;6.07;;;1.50;;
74064;SDS011;62421;51.412;5.432;2022-09-01T02:51:45;4.68;;;1.48;;
74064;SDS011;62421;51.412;5.432;2022-09-01T02:54:12;4.57;;;1.20;;
74064;SDS011;62421;51.412;5.432;2022-09-01T02:56:44;3.95;;;1.45;;
74064;SDS011;62421;51.412;5.432;2022-09-01T02:59:14;4.13;;;1.40;;
74064;SDS011;62421;51.412;5.432;2022-09-01T03:01:40;4.60;;;1.10;;
74064;SDS011;62421;51.412;5.432;2022-09-01T03:04:06;4.10;;;1.50;;
74064;SDS011;62421;51.412;5.432;2022-09-01T03:06:34;3.53;;;1.20;;
74064;SDS011;62421;51.412;5.432;2022-09-01T03:09:03;5.82;;;1.65;;
74064;SDS011;62421;51.412;5.432;2022-09-01T03:11:31;4.05;;;1.55;;
74064;SDS011;62421;51.412;5.432;2022-09-01T03:13:59;3.77;;;1.40;;
74064;SDS011;62421;51.412;5.432;2022-09-01T03:16:25;4.85;;;1.45;;
74064;SDS011;62421;51.412;5.432;2022-09-01T03:18:50;3.25;;;1.55;;
74064;SDS011;62421;51.412;5.432;2022-09-01T03:21:16;4.40;;;1.47;;
74064;SDS011;62421;51.412;5.432;2022-09-01T03:23:43;9.27;;;1.80;;
74064;SDS011;62421;51.412;5.432;2022-09-01T03:26:10;8.05;;;1.80;;
74064;SDS011;62421;51.412;5.432;2022-09-01T03:28:36;4.03;;;1.20;;
74064;SDS011;62421;51.412;5.432;2022-09-01T03:31:02;3.88;;;1.50;;
74064;SDS011;62421;51.412;5.432;2022-09-01T03:33:28;6.63;;;1.70;;
74064;SDS011;62421;51.412;5.432;2022-09-01T03:35:54;9.70;;;1.17;;
74064;SDS011;62421;51.412;5.432;2022-09-01T03:38:22;4.00;;;1.50;;
74064;SDS011;62421;51.412;5.432;2022-09-01T03:40:49;7.95;;;2.22;;
74064;SDS011;62421;51.412;5.432;2022-09-01T03:43:17;6.70;;;1.60;;
74064;SDS011;62421;51.412;5.432;2022-09-01T03:45:44;5.45;;;1.60;;
74064;SDS011;62421;51.412;5.432;2022-09-01T03:48:10;4.53;;;1.40;;
74064;SDS011;62421;51.412;5.432;2022-09-01T03:50:37;4.20;;;1.80;;
74064;SDS011;62421;51.412;5.432;2022-09-01T03:53:12;6.13;;;1.60;;
74064;SDS011;62421;51.412;5.432;2022-09-01T03:55:45;3.00;;;1.20;;
74064;SDS011;62421;51.412;5.432;2022-09-01T03:58:13;7.00;;;1.50;;
74064;SDS011;62421;51.412;5.432;2022-09-01T04:00:43;4.63;;;1.75;;
74064;SDS011;62421;51.412;5.432;2022-09-01T04:03:10;6.28;;;1.73;;
74064;SDS011;62421;51.412;5.432;2022-09-01T04:05:38;7.28;;;1.67;;
74064;SDS011;62421;51.412;5.432;2022-09-01T04:08:07;5.23;;;1.80;;
74064;SDS011;62421;51.412;5.432;2022-09-01T04:10:36;9.07;;;1.83;;
74064;SDS011;62421;51.412;5.432;2022-09-01T04:13:10;9.70;;;1.73;;
74064;SDS011;62421;51.412;5.432;2022-09-01T04:15:36;3.50;;;1.40;;
74064;SDS011;62421;51.412;5.432;2022-09-01T04:18:02;5.72;;;1.60;;
74064;SDS011;62421;51.412;5.432;2022-09-01T04:20:38;4.97;;;1.60;;
74064;SDS011;62421;51.412;5.432;2022-09-01T04:23:19;4.18;;;1.67;;
74064;SDS011;62421;51.412;5.432;2022-09-01T04:28:24;3.88;;;1.50;;
74064;SDS011;62421;51.412;5.432;2022-09-01T04:30:55;4.80;;;2.08;;
74064;SDS011;62421;51.412;5.432;2022-09-01T04:33:25;4.80;;;1.67;;
74064;SDS011;62421;51.412;5.432;2022-09-01T04:36:01;4.25;;;1.45;;
74064;SDS011;62421;51.412;5.432;2022-09-01T04:38:27;9.53;;;1.83;;
74064;SDS011;62421;51.412;5.432;2022-09-01T04:40:53;6.43;;;1.60;;
74064;SDS011;62421;51.412;5.432;2022-09-01T04:43:21;7.40;;;1.90;;
74064;SDS011;62421;51.412;5.432;2022-09-01T04:45:47;5.60;;;1.48;;
74064;SDS011;62421;51.412;5.432;2022-09-01T04:48:16;9.25;;;1.88;;
74064;SDS011;62421;51.412;5.432;2022-09-01T04:50:43;5.10;;;1.83;;
74064;SDS011;62421;51.412;5.432;2022-09-01T04:53:09;5.70;;;2.10;;
74064;SDS011;62421;51.412;5.432;2022-09-01T04:55:37;6.67;;;1.93;;
74064;SDS011;62421;51.412;5.432;2022-09-01T04:58:07;6.43;;;1.83;;
74064;SDS011;62421;51.412;5.432;2022-09-01T05:00:33;4.13;;;1.65;;
74064;SDS011;62421;51.412;5.432;2022-09-01T05:02:59;5.63;;;2.00;;
74064;SDS011;62421;51.412;5.432;2022-09-01T05:05:28;4.68;;;2.03;;
74064;SDS011;62421;51.412;5.432;2022-09-01T05:08:03;5.77;;;2.00;;
74064;SDS011;62421;51.412;5.432;2022-09-01T05:10:37;3.92;;;1.80;;
74064;SDS011;62421;51.412;5.432;2022-09-01T05:13:05;7.82;;;2.22;;
74064;SDS011;62421;51.412;5.432;2022-09-01T05:15:34;5.07;;;1.90;;
74064;SDS011;62421;51.412;5.432;2022-09-01T05:18:01;4.53;;;1.70;;
74064;SDS011;62421;51.412;5.432;2022-09-01T05:20:35;10.40;;;2.27;;
74064;SDS011;62421;51.412;5.432;2022-09-01T05:23:02;9.05;;;2.42;;
74064;SDS011;62421;51.412;5.432;2022-09-01T05:25:29;8.80;;;2.00;;
74064;SDS011;62421;51.412;5.432;2022-09-01T05:27:54;7.85;;;2.40;;
74064;SDS011;62421;51.412;5.432;2022-09-01T05:30:21;12.07;;;2.00;;
74064;SDS011;62421;51.412;5.432;2022-09-01T05:32:47;6.50;;;1.70;;
74064;SDS011;62421;51.412;5.432;2022-09-01T05:35:14;8.65;;;1.83;;
74064;SDS011;62421;51.412;5.432;2022-09-01T05:37:40;7.47;;;1.93;;
74064;SDS011;62421;51.412;5.432;2022-09-01T05:40:07;5.65;;;1.95;;
74064;SDS011;62421;51.412;5.432;2022-09-01T05:42:39;7.22;;;2.20;;
74064;SDS011;62421;51.412;5.432;2022-09-01T05:45:08;12.48;;;2.40;;
74064;SDS011;62421;51.412;5.432;2022-09-01T05:47:36;5.03;;;2.00;;
74064;SDS011;62421;51.412;5.432;2022-09-01T05:50:06;6.95;;;2.17;;
74064;SDS011;62421;51.412;5.432;2022-09-01T05:52:35;7.25;;;2.40;;
74064;SDS011;62421;51.412;5.432;2022-09-01T05:55:01;7.38;;;2.33;;
74064;SDS011;62421;51.412;5.432;2022-09-01T05:57:27;5.47;;;2.20;;
74064;SDS011;62421;51.412;5.432;2022-09-01T05:59:52;4.73;;;2.33;;
74064;SDS011;62421;51.412;5.432;2022-09-01T06:02:21;8.32;;;2.33;;
74064;SDS011;62421;51.412;5.432;2022-09-01T06:04:48;9.70;;;2.83;;
74064;SDS011;62421;51.412;5.432;2022-09-01T06:07:14;8.55;;;2.60;;
74064;SDS011;62421;51.412;5.432;2022-09-01T06:09:42;8.27;;;2.50;;
74064;SDS011;62421;51.412;5.432;2022-09-01T06:12:10;7.90;;;2.28;;
74064;SDS011;62421;51.412;5.432;2022-09-01T06:14:41;9.00;;;2.58;;
74064;SDS011;62421;51.412;5.432;2022-09-01T06:17:07;13.98;;;3.13;;
74064;SDS011;62421;51.412;5.432;2022-09-01T06:19:34;11.32;;;3.20;;
74064;SDS011;62421;51.412;5.432;2022-09-01T06:22:00;8.13;;;3.57;;
74064;SDS011;62421;51.412;5.432;2022-09-01T06:24:26;9.80;;;3.88;;
74064;SDS011;62421;51.412;5.432;2022-09-01T06:26:53;16.77;;;3.87;;
74064;SDS011;62421;51.412;5.432;2022-09-01T06:29:19;12.80;;;4.10;;
74064;SDS011;62421;51.412;5.432;2022-09-01T06:31:45;15.55;;;4.25;;
74064;SDS011;62421;51.412;5.432;2022-09-01T06:34:15;14.07;;;4.63;;
74064;SDS011;62421;51.412;5.432;2022-09-01T06:36:42;11.97;;;3.43;;
74064;SDS011;62421;51.412;5.432;2022-09-01T06:39:08;22.90;;;6.00;;
74064;SDS011;62421;51.412;5.432;2022-09-01T06:41:38;13.98;;;5.97;;
74064;SDS011;62421;51.412;5.432;2022-09-01T06:44:03;22.23;;;6.97;;
74064;SDS011;62421;51.412;5.432;2022-09-01T06:46:28;20.03;;;6.97;;
74064;SDS011;62421;51.412;5.432;2022-09-01T06:48:54;18.07;;;7.13;;
74064;SDS011;62421;51.412;5.432;2022-09-01T06:51:23;18.10;;;6.13;;
74064;SDS011;62421;51.412;5.432;2022-09-01T06:53:52;16.95;;;5.70;;
74064;SDS011;62421;51.412;5.432;2022-09-01T06:56:24;17.73;;;5.60;;
74064;SDS011;62421;51.412;5.432;2022-09-01T06:58:52;15.03;;;5.00;;
74064;SDS011;62421;51.412;5.432;2022-09-01T07:01:18;15.80;;;5.65;;
74064;SDS011;62421;51.412;5.432;2022-09-01T07:03:46;11.82;;;5.57;;
74064;SDS011;62421;51.412;5.432;2022-09-01T07:06:13;22.80;;;6.28;;
74064;SDS011;62421;51.412;5.432;2022-09-01T07:08:39;22.02;;;6.47;;
74064;SDS011;62421;51.412;5.432;2022-09-01T07:11:13;17.97;;;7.40;;
74064;SDS011;62421;51.412;5.432;2022-09-01T07:13:41;20.42;;;8.02;;
74064;SDS011;62421;51.412;5.432;2022-09-01T07:16:14;24.08;;;8.23;;
74064;SDS011;62421;51.412;5.432;2022-09-01T07:18:42;29.35;;;7.97;;
74064;SDS011;62421;51.412;5.432;2022-09-01T07:21:07;22.17;;;8.80;;
74064;SDS011;62421;51.412;5.432;2022-09-01T07:23:33;22.70;;;9.63;;
74064;SDS011;62421;51.412;5.432;2022-09-01T07:25:58;29.15;;;8.80;;
74064;SDS011;62421;51.412;5.432;2022-09-01T07:28:24;18.17;;;8.10;;
74064;SDS011;62421;51.412;5.432;2022-09-01T07:30:54;19.27;;;7.85;;
74064;SDS011;62421;51.412;5.432;2022-09-01T07:33:20;21.95;;;7.72;;
74064;SDS011;62421;51.412;5.432;2022-09-01T07:35:49;21.10;;;7.88;;
74064;SDS011;62421;51.412;5.432;2022-09-01T07:38:19;20.07;;;6.70;;
74064;SDS011;62421;51.412;5.432;2022-09-01T07:40:49;14.70;;;5.00;;
74064;SDS011;62421;51.412;5.432;2022-09-01T07:43:18;21.35;;;6.80;;
74064;SDS011;62421;51.412;5.432;2022-09-01T07:45:50;11.50;;;6.07;;
74064;SDS011;62421;51.412;5.432;2022-09-01T07:48:19;12.95;;;5.57;;
74064;SDS011;62421;51.412;5.432;2022-09-01T07:50:46;14.53;;;6.67;;
74064;SDS011;62421;51.412;5.432;2022-09-01T07:53:15;18.05;;;6.57;;
74064;SDS011;62421;51.412;5.432;2022-09-01T07:55:42;15.20;;;6.28;;
74064;SDS011;62421;51.412;5.432;2022-09-01T07:58:09;24.70;;;7.60;;
74064;SDS011;62421;51.412;5.432;2022-09-01T08:00:35;19.40;;;8.70;;
74064;SDS011;62421;51.412;5.432;2022-09-01T08:03:02;19.13;;;8.23;;
74064;SDS011;62421;51.412;5.432;2022-09-01T08:05:27;21.60;;;8.13;;
74064;SDS011;62421;51.412;5.432;2022-09-01T08:07:52;19.37;;;7.30;;
74064;SDS011;62421;51.412;5.432;2022-09-01T08:10:18;17.77;;;7.07;;
74064;SDS011;62421;51.412;5.432;2022-09-01T08:12:44;16.88;;;6.68;;
74064;SDS011;62421;51.412;5.432;2022-09-01T08:15:09;24.73;;;7.60;;
74064;SDS011;62421;51.412;5.432;2022-09-01T08:17:36;18.55;;;7.35;;
74064;SDS011;62421;51.412;5.432;2022-09-01T08:20:02;21.97;;;6.87;;
74064;SDS011;62421;51.412;5.432;2022-09-01T08:22:31;16.10;;;6.40;;
74064;SDS011;62421;51.412;5.432;2022-09-01T08:24:56;14.17;;;5.57;;
74064;SDS011;62421;51.412;5.432;2022-09-01T08:27:22;20.88;;;7.60;;
74064;SDS011;62421;51.412;5.432;2022-09-01T08:29:47;22.23;;;9.15;;
74064;SDS011;62421;51.412;5.432;2022-09-01T08:32:12;22.83;;;9.07;;
74064;SDS011;62421;51.412;5.432;2022-09-01T08:34:38;23.83;;;11.13;;
74064;SDS011;62421;51.412;5.432;2022-09-01T08:37:04;22.93;;;10.67;;
74064;SDS011;62421;51.412;5.432;2022-09-01T08:39:30;27.77;;;11.50;;
74064;SDS011;62421;51.412;5.432;2022-09-01T08:42:13;30.90;;;14.20;;
74064;SDS011;62421;51.412;5.432;2022-09-01T08:47:27;49.27;;;19.53;;
74064;SDS011;62421;51.412;5.432;2022-09-01T08:49:53;45.55;;;20.50;;
74064;SDS011;62421;51.412;5.432;2022-09-01T08:52:26;51.17;;;21.15;;
74064;SDS011;62421;51.412;5.432;2022-09-01T08:55:15;56.70;;;20.98;;
74064;SDS011;62421;51.412;5.432;2022-09-01T08:57:49;51.38;;;21.77;;
74064;SDS011;62421;51.412;5.432;2022-09-01T09:00:17;49.20;;;20.17;;
74064;SDS011;62421;51.412;5.432;2022-09-01T09:10:50;47.40;;;19.33;;
74064;SDS011;62421;51.412;5.432;2022-09-01T09:13:24;34.33;;;16.17;;
74064;SDS011;62421;51.412;5.432;2022-09-01T09:16:17;33.30;;;15.15;;
74064;SDS011;62421;51.412;5.432;2022-09-01T09:24:25;42.80;;;17.23;;
74064;SDS011;62421;51.412;5.432;2022-09-01T09:27:19;32.93;;;13.40;;
74064;SDS011;62421;51.412;5.432;2022-09-01T09:29:48;26.58;;;11.98;;
74064;SDS011;62421;51.412;5.432;2022-09-01T09:32:16;26.77;;;12.10;;
74064;SDS011;62421;51.412;5.432;2022-09-01T09:34:42;24.30;;;8.75;;
74064;SDS011;62421;51.412;5.432;2022-09-01T09:37:24;21.55;;;8.63;;
74064;SDS011;62421;51.412;5.432;2022-09-01T09:40:02;21.60;;;8.80;;
74064;SDS011;62421;51.412;5.432;2022-09-01T09:42:32;21.42;;;9.07;;
74064;SDS011;62421;51.412;5.432;2022-09-01T09:44:58;17.63;;;8.10;;
74064;SDS011;62421;51.412;5.432;2022-09-01T09:50:17;20.85;;;7.35;;
74064;SDS011;62421;51.412;5.432;2022-09-01T09:52:43;22.77;;;6.30;;
74064;SDS011;62421;51.412;5.432;2022-09-01T09:57:59;20.45;;;6.70;;
74064;SDS011;62421;51.412;5.432;2022-09-01T10:00:33;23.17;;;9.23;;
74064;SDS011;62421;51.412;5.432;2022-09-01T10:03:00;25.53;;;9.27;;
74064;SDS011;62421;51.412;5.432;2022-09-01T10:08:02;17.90;;;7.78;;
74064;SDS011;62421;51.412;5.432;2022-09-01T10:10:35;15.15;;;6.30;;
74064;SDS011;62421;51.412;5.432;2022-09-01T10:13:02;12.68;;;6.03;;
74064;SDS011;62421;51.412;5.432;2022-09-01T10:15:29;12.03;;;5.80;;
74064;SDS011;62421;51.412;5.432;2022-09-01T10:17:59;14.60;;;6.05;;
74064;SDS011;62421;51.412;5.432;2022-09-01T10:20:30;18.35;;;6.20;;
74064;SDS011;62421;51.412;5.432;2022-09-01T10:22:56;11.25;;;5.00;;
74064;SDS011;62421;51.412;5.432;2022-09-01T10:25:23;12.50;;;5.07;;
74064;SDS011;62421;51.412;5.432;2022-09-01T10:27:54;9.90;;;3.90;;
74064;SDS011;62421;51.412;5.432;2022-09-01T10:30:22;13.70;;;4.10;;
74064;SDS011;62421;51.412;5.432;2022-09-01T10:32:50;21.85;;;7.80;;
74064;SDS011;62421;51.412;5.432;2022-09-01T10:35:20;11.98;;;4.53;;
74064;SDS011;62421;51.412;5.432;2022-09-01T10:37:48;17.13;;;5.50;;
74064;SDS011;62421;51.412;5.432;2022-09-01T10:40:16;12.93;;;5.38;;
74064;SDS011;62421;51.412;5.432;2022-09-01T10:42:43;16.47;;;5.10;;
74064;SDS011;62421;51.412;5.432;2022-09-01T10:45:19;16.10;;;5.68;;
74064;SDS011;62421;51.412;5.432;2022-09-01T10:50:44;11.75;;;5.57;;
74064;SDS011;62421;51.412;5.432;2022-09-01T10:53:36;12.00;;;5.13;;
74064;SDS011;62421;51.412;5.432;2022-09-01T10:58:38;27.77;;;7.70;;
74064;SDS011;62421;51.412;5.432;2022-09-01T11:01:07;17.10;;;6.57;;
74064;SDS011;62421;51.412;5.432;2022-09-01T11:03:36;11.63;;;5.37;;
74064;SDS011;62421;51.412;5.432;2022-09-01T11:06:05;15.15;;;2.90;;
74064;SDS011;62421;51.412;5.432;2022-09-01T11:18:51;11.37;;;4.73;;
74064;SDS011;62421;51.412;5.432;2022-09-01T11:21:29;16.30;;;6.47;;
74064;SDS011;62421;51.412;5.432;2022-09-01T11:27:11;14.50;;;5.72;;
74064;SDS011;62421;51.412;5.432;2022-09-01T11:29:57;14.70;;;5.67;;
74064;SDS011;62421;51.412;5.432;2022-09-01T11:32:30;13.52;;;5.50;;
74064;SDS011;62421;51.412;5.432;2022-09-01T11:34:59;14.60;;;5.60;;
74064;SDS011;62421;51.412;5.432;2022-09-01T11:37:27;12.48;;;4.60;;
74064;SDS011;62421;51.412;5.432;2022-09-01T11:39:59;13.03;;;4.07;;
74064;SDS011;62421;51.412;5.432;2022-09-01T11:42:30;10.25;;;2.50;;
74064;SDS011;62421;51.412;5.432;2022-09-01T11:45:12;11.10;;;2.33;;
74064;SDS011;62421;51.412;5.432;2022-09-01T11:47:39;4.13;;;1.80;;
74064;SDS011;62421;51.412;5.432;2022-09-01T11:50:41;5.90;;;1.60;;
74064;SDS011;62421;51.412;5.432;2022-09-01T11:55:37;4.95;;;1.40;;
74064;SDS011;62421;51.412;5.432;2022-09-01T11:58:05;5.65;;;1.80;;
74064;SDS011;62421;51.412;5.432;2022-09-01T12:00:35;4.03;;;1.23;;
74064;SDS011;62421;51.412;5.432;2022-09-01T12:03:02;8.38;;;2.40;;
74064;SDS011;62421;51.412;5.432;2022-09-01T12:05:52;7.53;;;2.38;;
74064;SDS011;62421;51.412;5.432;2022-09-01T12:08:24;6.03;;;1.92;;
74064;SDS011;62421;51.412;5.432;2022-09-01T12:11:12;5.43;;;1.50;;
74064;SDS011;62421;51.412;5.432;2022-09-01T12:13:54;3.40;;;1.10;;
74064;SDS011;62421;51.412;5.432;2022-09-01T12:16:28;6.75;;;1.05;;
74064;SDS011;62421;51.412;5.432;2022-09-01T12:18:55;7.88;;;1.40;;
74064;SDS011;62421;51.412;5.432;2022-09-01T12:21:25;11.35;;;2.47;;
74064;SDS011;62421;51.412;5.432;2022-09-01T12:24:13;8.88;;;3.60;;
74064;SDS011;62421;51.412;5.432;2022-09-01T12:26:42;9.57;;;2.77;;
74064;SDS011;62421;51.412;5.432;2022-09-01T12:29:09;7.32;;;2.20;;
74064;SDS011;62421;51.412;5.432;2022-09-01T12:31:38;7.00;;;1.90;;
74064;SDS011;62421;51.412;5.432;2022-09-01T12:34:20;7.85;;;2.10;;
74064;SDS011;62421;51.412;5.432;2022-09-01T12:37:06;7.70;;;1.90;;
74064;SDS011;62421;51.412;5.432;2022-09-01T12:39:38;4.77;;;1.53;;
74064;SDS011;62421;51.412;5.432;2022-09-01T12:42:11;9.35;;;1.80;;
74064;SDS011;62421;51.412;5.432;2022-09-01T12:44:52;13.40;;;2.08;;
74064;SDS011;62421;51.412;5.432;2022-09-01T12:47:45;7.60;;;2.05;;
74064;SDS011;62421;51.412;5.432;2022-09-01T12:52:58;9.17;;;1.63;;
74064;SDS011;62421;51.412;5.432;2022-09-01T12:57:51;4.57;;;1.25;;
74064;SDS011;62421;51.412;5.432;2022-09-01T13:00:20;4.72;;;0.90;;
74064;SDS011;62421;51.412;5.432;2022-09-01T13:02:48;7.20;;;1.38;;
74064;SDS011;62421;51.412;5.432;2022-09-01T13:07:58;7.30;;;1.03;;
74064;SDS011;62421;51.412;5.432;2022-09-01T13:10:26;7.63;;;0.80;;
74064;SDS011;62421;51.412;5.432;2022-09-01T13:12:55;2.88;;;0.90;;
74064;SDS011;62421;51.412;5.432;2022-09-01T13:15:22;2.92;;;0.60;;
74064;SDS011;62421;51.412;5.432;2022-09-01T13:17:49;6.75;;;2.80;;
74064;SDS011;62421;51.412;5.432;2022-09-01T13:20:15;17.80;;;6.17;;
74064;SDS011;62421;51.412;5.432;2022-09-01T13:22:41;9.73;;;4.60;;
74064;SDS011;62421;51.412;5.432;2022-09-01T13:25:08;12.35;;;3.67;;
74064;SDS011;62421;51.412;5.432;2022-09-01T13:27:35;10.82;;;3.65;;
74064;SDS011;62421;51.412;5.432;2022-09-01T13:30:02;9.30;;;3.28;;
74064;SDS011;62421;51.412;5.432;2022-09-01T13:32:30;9.68;;;2.83;;
74064;SDS011;62421;51.412;5.432;2022-09-01T13:34:56;6.07;;;2.00;;
74064;SDS011;62421;51.412;5.432;2022-09-01T13:37:21;7.53;;;1.53;;
74064;SDS011;62421;51.412;5.432;2022-09-01T13:39:47;5.40;;;1.50;;
74064;SDS011;62421;51.412;5.432;2022-09-01T13:42:13;8.30;;;1.50;;
74064;SDS011;62421;51.412;5.432;2022-09-01T13:44:39;3.97;;;1.83;;
74064;SDS011;62421;51.412;5.432;2022-09-01T13:47:04;9.83;;;3.93;;
74064;SDS011;62421;51.412;5.432;2022-09-01T13:49:30;10.93;;;4.25;;
74064;SDS011;62421;51.412;5.432;2022-09-01T13:51:55;12.77;;;4.80;;
74064;SDS011;62421;51.412;5.432;2022-09-01T13:54:21;12.50;;;5.50;;
74064;SDS011;62421;51.412;5.432;2022-09-01T13:56:46;12.20;;;4.77;;
74064;SDS011;62421;51.412;5.432;2022-09-01T13:59:11;13.17;;;4.00;;
74064;SDS011;62421;51.412;5.432;2022-09-01T14:01:37;14.70;;;4.80;;
74064;SDS011;62421;51.412;5.432;2022-09-01T14:04:05;12.18;;;5.03;;
74064;SDS011;62421;51.412;5.432;2022-09-01T14:06:31;15.15;;;5.57;;
74064;SDS011;62421;51.412;5.432;2022-09-01T14:08:57;16.50;;;5.50;;
74064;SDS011;62421;51.412;5.432;2022-09-01T14:11:23;12.40;;;5.28;;
74064;SDS011;62421;51.412;5.432;2022-09-01T14:13:50;14.90;;;5.27;;
74064;SDS011;62421;51.412;5.432;2022-09-01T14:16:15;14.25;;;5.55;;
74064;SDS011;62421;51.412;5.432;2022-09-01T14:18:41;16.93;;;5.50;;
74064;SDS011;62421;51.412;5.432;2022-09-01T14:21:11;19.57;;;5.27;;
74064;SDS011;62421;51.412;5.432;2022-09-01T14:23:38;14.77;;;5.32;;
74064;SDS011;62421;51.412;5.432;2022-09-01T14:26:07;13.70;;;3.80;;
74064;SDS011;62421;51.412;5.432;2022-09-01T14:28:35;8.75;;;2.92;;
74064;SDS011;62421;51.412;5.432;2022-09-01T14:31:01;8.37;;;2.90;;
74064;SDS011;62421;51.412;5.432;2022-09-01T14:33:32;10.88;;;3.53;;
74064;SDS011;62421;51.412;5.432;2022-09-01T14:35:58;9.65;;;3.40;;
74064;SDS011;62421;51.412;5.432;2022-09-01T14:38:24;16.13;;;3.57;;
74064;SDS011;62421;51.412;5.432;2022-09-01T14:40:49;10.33;;;4.27;;
74064;SDS011;62421;51.412;5.432;2022-09-01T14:43:16;10.60;;;3.95;;
74064;SDS011;62421;51.412;5.432;2022-09-01T14:45:42;11.60;;;4.43;;
74064;SDS011;62421;51.412;5.432;2022-09-01T14:48:13;10.43;;;3.63;;
74064;SDS011;62421;51.412;5.432;2022-09-01T14:50:43;9.55;;;3.72;;
74064;SDS011;62421;51.412;5.432;2022-09-01T14:53:10;10.55;;;3.00;;
74064;SDS011;62421;51.412;5.432;2022-09-01T14:55:36;10.87;;;2.90;;
74064;SDS011;62421;51.412;5.432;2022-09-01T14:58:01;15.73;;;3.15;;
74064;SDS011;62421;51.412;5.432;2022-09-01T15:00:27;11.63;;;2.53;;
74064;SDS011;62421;51.412;5.432;2022-09-01T15:02:55;12.77;;;2.88;;
74064;SDS011;62421;51.412;5.432;2022-09-01T15:05:21;11.43;;;3.00;;
74064;SDS011;62421;51.412;5.432;2022-09-01T15:07:47;9.95;;;2.85;;
74064;SDS011;62421;51.412;5.432;2022-09-01T15:10:14;11.53;;;1.93;;
74064;SDS011;62421;51.412;5.432;2022-09-01T15:12:41;9.38;;;1.40;;
74064;SDS011;62421;51.412;5.432;2022-09-01T15:15:07;5.50;;;1.80;;
74064;SDS011;62421;51.412;5.432;2022-09-01T15:17:33;13.25;;;1.77;;
74064;SDS011;62421;51.412;5.432;2022-09-01T15:19:59;8.55;;;1.48;;
74064;SDS011;62421;51.412;5.432;2022-09-01T15:22:46;13.20;;;3.17;;
74064;SDS011;62421;51.412;5.432;2022-09-01T15:25:13;12.32;;;3.30;;
74064;SDS011;62421;51.412;5.432;2022-09-01T15:27:39;10.35;;;3.75;;
74064;SDS011;62421;51.412;5.432;2022-09-01T15:30:05;8.77;;;3.30;;
74064;SDS011;62421;51.412;5.432;2022-09-01T15:32:39;13.15;;;4.03;;
74064;SDS011;62421;51.412;5.432;2022-09-01T15:35:06;12.05;;;3.88;;
74064;SDS011;62421;51.412;5.432;2022-09-01T15:37:32;11.35;;;3.35;;
74064;SDS011;62421;51.412;5.432;2022-09-01T15:39:58;8.43;;;3.47;;
74064;SDS011;62421;51.412;5.432;2022-09-01T15:42:24;12.17;;;3.93;;
74064;SDS011;62421;51.412;5.432;2022-09-01T15:44:49;12.55;;;3.60;;
74064;SDS011;62421;51.412;5.432;2022-09-01T15:47:15;13.50;;;4.47;;
74064;SDS011;62421;51.412;5.432;2022-09-01T15:49:40;10.73;;;3.77;;